Portada
METAR-TAF:

METAR-TAF

Aeropuertos :

Damasco, Siria

Aeropuerto Internacional de Damasco

latitud: 33-25N, longitud: 036-31E, altitud: 608 m

Observación

El informe se hizo hace 29 minutos, a las 18:00 UTC
Viento 8 kt del este-sureste
Temperatura 25°C
Humedad 39%
Presión 1012 hPa
Visibilidad 10 km o más
sin nubes por debajo de 1500 m y sin presencia de cumulonimbus.

METAR: OSDI 221800Z 11008KT CAVOK 25/10 Q1012

Hora: 21:29 (18:29 UTC)

Pronóstico

Pronóstico válido del 22 a las 18 UTC al 23 a las 24 UTC
Viento 3 kt con dirección variable
Visibilidad 10 km o más
sin nubes por debajo de 1500 m y sin presencia de cumulonimbus.
Temporalmente
del 23 a las 09 UTC al 23 a las 18 UTC
Viento 10 kt del suroeste
Visibilidad 10 km o más
sin nubes por debajo de 1500 m y sin presencia de cumulonimbus.

TAF: OSDI 2218/2324 VRB03KT CAVOK TEMPO 2309/2318 23010KT CAVOK

Observaciones y pronósticos meteorológicos de más de 4000 aeropuertos (mensajes METAR y TAF).

Los puntos amarillos y rojos representan las estaciones disponibles.

Ponga el ratón en el punto deseado para ver el nombre de la estación.

Haga clic para ver las observaciones y los pronósticos meteorológicos.

Para cambiar el mapa : haga clic en los botones verdes con una cruz de color negro para hacer un zoom, en el botón verde con un guión para alejar o en las flechas verdes para mapas adyacentes.


METAR-TAF: